Time;durP1;ratioP1;P1;durP2;ratioP2;P2;SDS_P1;SDS_P2;PMS_P1;PMS_P2;Temp;Humidity;BMP_temperature;BMP_pressure;BME280_temperature;BME280_humidity;BME280_pressure;Samples;Min_cycle;Max_cycle;Signal;HPM_P1;HPM_P2
2021/04/29 00:00:55;;;;;;;19.47;14.57;;;;;;;8.52;40.25;99788.53;126764;1108;103135;-82
2021/04/29 00:03:22;;;;;;;22.65;14.75;;;;;;;8.50;40.24;99788.58;126283;1107;103212;-83
2021/04/29 00:05:51;;;;;;;20.63;14.70;;;;;;;8.46;40.47;99786.03;126940;1104;102998;-83
2021/04/29 00:08:24;;;;;;;17.33;13.97;;;;;;;8.47;41.11;99785.13;127595;1104;101168;-84
2021/04/29 00:10:52;;;;;;;17.17;13.33;;;;;;;8.42;40.72;99779.05;126917;1104;103094;-84
2021/04/29 00:13:19;;;;;;;16.08;12.78;;;;;;;8.41;40.66;99790.56;126701;1104;103107;-83
2021/04/29 00:15:47;;;;;;;18.78;14.30;;;;;;;8.36;40.69;99785.39;127630;1104;101242;-83
2021/04/29 00:18:15;;;;;;;16.50;14.47;;;;;;;8.34;41.02;99785.44;127009;1104;103044;-84
2021/04/29 00:20:43;;;;;;;15.00;13.20;;;;;;;8.31;41.16;99781.98;126676;1104;101781;-81
2021/04/29 00:23:25;;;;;;;20.90;14.38;;;;;;;8.30;41.06;99772.28;127369;1105;103199;-82
2021/04/29 00:25:53;;;;;;;14.73;12.68;;;;;;;8.30;41.58;99774.94;127158;1104;103106;-83
2021/04/29 00:28:21;;;;;;;16.77;13.83;;;;;;;8.24;41.72;99777.74;127198;1104;102608;-81
2021/04/29 00:30:49;;;;;;;18.30;13.40;;;;;;;8.21;41.72;99776.07;126630;1104;103022;-82
2021/04/29 00:33:18;;;;;;;14.18;12.58;;;;;;;8.18;42.21;99782.33;126821;1104;102978;-81
2021/04/29 00:35:45;;;;;;;17.15;14.78;;;;;;;8.15;42.24;99770.92;126615;1102;103246;-84
2021/04/29 00:38:17;;;;;;;19.93;15.80;;;;;;;8.13;42.45;99770.97;127148;1101;101936;-82
2021/04/29 00:40:49;;;;;;;18.27;14.47;;;;;;;8.10;42.47;99771.02;127419;1101;102921;-81
2021/04/29 00:43:16;;;;;;;16.00;13.60;;;;;;;8.06;42.86;99769.37;126849;1101;101391;-82
2021/04/29 00:45:47;;;;;;;17.55;14.33;;;;;;;8.01;42.87;99766.85;126785;1101;103030;-85
2021/04/29 00:48:20;;;;;;;18.70;14.80;;;;;;;8.01;43.26;99763.30;126639;1101;102940;-83
2021/04/29 00:50:47;;;;;;;19.85;14.93;;;;;;;7.95;43.15;99763.48;126784;1103;103217;-85
2021/04/29 00:53:15;;;;;;;16.83;14.20;;;;;;;7.92;43.55;99767.09;126938;1101;102987;-82
2021/04/29 00:55:42;;;;;;;16.43;14.05;;;;;;;7.89;43.31;99775.13;126734;1101;103173;-83
2021/04/29 00:58:09;;;;;;;17.90;13.87;;;;;;;7.85;43.63;99769.02;127009;1101;102968;-85
2021/04/29 01:00:38;;;;;;;18.47;14.87;;;;;;;7.81;43.90;99767.36;126607;1101;103038;-83
2021/04/29 01:03:14;;;;;;;18.10;13.35;;;;;;;7.76;44.50;99763.95;126914;1101;102931;-79
2021/04/29 01:06:02;;;;;;;20.65;12.90;;;;;;;7.75;44.21;99761.34;126566;1104;102976;-82
2021/04/29 01:08:52;;;;;;;15.23;13.65;;;;;;;7.73;44.49;99761.39;126508;1104;103039;-84
2021/04/29 01:11:34;;;;;;;15.70;12.47;;;;;;;7.66;44.86;99751.83;126838;1101;102967;-83
2021/04/29 01:14:05;;;;;;;20.35;15.03;;;;;;;7.62;45.11;99755.47;127057;1101;102968;-82
2021/04/29 01:16:37;;;;;;;21.08;14.80;;;;;;;7.58;45.29;99749.36;127031;1101;102937;-83
2021/04/29 01:19:07;;;;;;;28.68;17.20;;;;;;;7.59;45.37;99745.81;127039;1095;103115;-81
2021/04/29 01:21:36;;;;;;;17.13;13.90;;;;;;;7.58;45.50;99748.50;127236;1101;102627;-83
2021/04/29 01:24:26;;;;;;;22.40;16.05;;;;;;;7.56;45.45;99755.61;127275;1101;103048;-82
2021/04/29 01:27:00;;;;;;;22.40;16.63;;;;;;;7.52;45.81;99752.19;126769;1101;103009;-82
2021/04/29 01:29:30;;;;;;;18.30;13.97;;;;;;;7.51;46.32;99751.30;126866;1101;103425;-83
2021/04/29 01:32:02;;;;;;;20.00;15.35;;;;;;;7.53;45.88;99752.14;127049;1101;103048;-84
2021/04/29 01:34:45;;;;;;;20.93;16.20;;;;;;;7.55;46.43;99745.94;126645;1101;102949;-82
2021/04/29 01:37:27;;;;;;;17.83;14.45;;;;;;;7.51;46.58;99748.64;126950;1101;101889;-81
2021/04/29 01:40:10;;;;;;;24.43;16.68;;;;;;;7.51;47.00;99747.78;126847;1101;102723;-82
2021/04/29 01:42:41;;;;;;;20.98;16.18;;;;;;;7.51;47.11;99743.34;126572;1101;102960;-83
2021/04/29 01:45:10;;;;;;;20.78;13.70;;;;;;;7.51;46.91;99735.39;127095;1101;102946;-82
2021/04/29 01:47:40;;;;;;;16.57;13.20;;;;;;;7.51;47.25;99742.48;127249;1101;102854;-82
2021/04/29 01:50:11;;;;;;;21.18;15.38;;;;;;;7.51;47.18;99743.34;126858;1096;102768;-83
2021/04/29 01:52:54;;;;;;;17.90;15.23;;;;;;;7.51;47.37;99734.54;127001;1104;102199;-82
2021/04/29 01:55:27;;;;;;;19.90;15.68;;;;;;;7.48;47.40;99746.08;126695;1104;103068;-82
2021/04/29 01:58:09;;;;;;;20.80;17.18;;;;;;;7.46;47.38;99736.42;126463;1104;101933;-82
2021/04/29 02:00:52;;;;;;;22.83;17.53;;;;;;;7.44;47.51;99740.91;126591;1104;103659;-83
2021/04/29 02:03:34;;;;;;;24.45;16.10;;;;;;;7.42;47.50;99740.91;126930;1101;102946;-83
2021/04/29 02:06:08;;;;;;;20.57;16.27;;;;;;;7.41;47.85;99738.31;127121;1101;101781;-84
2021/04/29 02:08:40;;;;;;;19.80;16.43;;;;;;;7.39;48.05;99735.70;127002;1097;102976;-82
2021/04/29 02:11:09;;;;;;;18.90;16.90;;;;;;;7.34;48.27;99741.13;127296;1101;103163;-83
2021/04/29 02:13:37;;;;;;;21.53;16.87;;;;;;;7.34;48.09;99740.23;126579;1101;103038;-83
2021/04/29 02:16:22;;;;;;;18.53;13.95;;;;;;;7.32;48.37;99726.17;127341;1101;102970;-82
2021/04/29 02:18:51;;;;;;;27.25;17.00;;;;;;;7.30;48.45;99734.13;126461;1102;103110;-82
2021/04/29 02:21:24;;;;;;;16.43;14.70;;;;;;;7.26;48.63;99728.95;127312;1097;101555;-81
2021/04/29 02:23:52;;;;;;;26.23;15.55;;;;;;;7.22;48.72;99727.29;126968;1101;104027;-81
2021/04/29 02:26:26;;;;;;;17.87;14.37;;;;;;;7.21;49.21;99729.08;127064;1102;102943;-81
2021/04/29 02:28:55;;;;;;;21.90;16.58;;;;;;;7.17;49.41;99722.98;126823;1101;103444;-83
2021/04/29 02:31:23;;;;;;;21.23;15.40;;;;;;;7.16;49.29;99726.52;126742;1096;103664;-84
2021/04/29 02:33:56;;;;;;;21.10;15.50;;;;;;;7.13;49.57;99723.95;126751;1101;103003;-81
2021/04/29 02:36:42;;;;;;;20.68;16.03;;;;;;;7.11;49.71;99719.59;126905;1104;102921;-82
2021/04/29 02:39:23;;;;;;;26.05;16.85;;;;;;;7.11;49.97;99716.95;126595;1107;103484;-84
2021/04/29 02:42:01;;;;;;;23.55;16.08;;;;;;;7.09;50.17;99722.28;126304;1108;103142;-81
2021/04/29 02:44:36;;;;;;;20.63;17.53;;;;;;;7.08;50.23;99719.64;126724;1108;103131;-81
2021/04/29 02:47:08;;;;;;;19.55;16.10;;;;;;;7.05;50.32;99717.97;126212;1107;103097;-82
2021/04/29 02:49:36;;;;;;;19.60;15.68;;;;;;;7.02;50.94;99725.96;126469;1108;102964;-83
2021/04/29 02:52:18;;;;;;;22.18;17.83;;;;;;;6.98;50.92;99714.59;125390;1111;103227;-83
2021/04/29 02:54:45;;;;;;;24.63;17.53;;;;;;;6.98;51.11;99719.00;125623;1110;103176;-80
2021/04/29 02:57:22;;;;;;;23.60;16.40;;;;;;;6.96;51.40;99719.03;125821;1108;103039;-81
2021/04/29 02:59:49;;;;;;;19.70;16.43;;;;;;;6.94;51.43;99718.19;126558;1107;103138;-82
2021/04/29 03:02:16;;;;;;;22.67;17.67;;;;;;;6.90;51.52;99718.30;126525;1107;102955;-83
2021/04/29 03:04:43;;;;;;;23.45;17.23;;;;;;;6.88;51.94;99720.09;126811;1106;103154;-82
2021/04/29 03:07:11;;;;;;;21.65;17.55;;;;;;;6.85;52.03;99721.03;126623;1108;103330;-82
2021/04/29 03:09:38;;;;;;;20.43;16.57;;;;;;;6.77;52.40;99710.64;126377;1107;101978;-83
2021/04/29 03:12:06;;;;;;;24.55;17.68;;;;;;;6.79;52.93;99721.19;126418;1108;103295;-81
2021/04/29 03:14:47;;;;;;;22.20;18.80;;;;;;;6.78;53.22;99722.95;126400;1104;103040;-82
2021/04/29 03:17:20;;;;;;;23.07;17.23;;;;;;;6.78;53.27;99717.66;126965;1095;102954;-83
2021/04/29 03:19:56;;;;;;;20.23;16.27;;;;;;;6.78;53.56;99719.44;127290;1101;103165;-82
2021/04/29 03:22:25;;;;;;;19.95;16.38;;;;;;;6.76;53.58;99714.19;127178;1101;102947;-83
2021/04/29 03:24:58;;;;;;;19.78;16.95;;;;;;;6.74;53.99;99709.83;127128;1101;103021;-84
2021/04/29 03:27:31;;;;;;;20.58;16.63;;;;;;;6.74;54.49;99715.13;127185;1101;103151;-83
2021/04/29 03:30:03;;;;;;;20.00;15.03;;;;;;;6.71;54.66;99705.47;126515;1104;103708;-81
2021/04/29 03:32:35;;;;;;;20.15;16.20;;;;;;;6.73;54.70;99706.33;126979;1096;101279;-81
2021/04/29 03:35:11;;;;;;;25.53;16.53;;;;;;;6.74;54.64;99717.77;126895;1101;102949;-82
2021/04/29 03:37:43;;;;;;;21.37;17.33;;;;;;;6.75;55.29;99716.88;126963;1101;103163;-82
2021/04/29 03:40:26;;;;;;;24.10;19.75;;;;;;;6.67;55.03;99717.89;127056;1101;102944;-83
2021/04/29 03:42:56;;;;;;;23.20;17.60;;;;;;;6.68;55.38;99716.99;126795;1101;103104;-82
2021/04/29 03:45:24;;;;;;;22.50;16.95;;;;;;;6.67;55.62;99719.67;126930;1101;102039;-83
2021/04/29 03:47:51;;;;;;;22.40;17.73;;;;;;;6.68;55.40;99721.42;126294;1101;101988;-83
2021/04/29 03:50:18;;;;;;;20.10;16.25;;;;;;;6.68;55.75;99708.20;126947;1101;102995;-83
2021/04/29 03:52:50;;;;;;;22.65;16.15;;;;;;;6.72;55.71;99715.16;126799;1101;102662;-82
2021/04/29 03:55:21;;;;;;;18.53;15.80;;;;;;;6.71;56.04;99707.26;127108;1101;102235;-83
2021/04/29 03:58:06;;;;;;;20.37;15.60;;;;;;;6.68;56.09;99703.77;126800;1101;103052;-82
2021/04/29 04:00:37;;;;;;;18.20;14.93;;;;;;;6.67;56.20;99709.95;126965;1101;103027;-82
2021/04/29 04:03:06;;;;;;;17.60;14.67;;;;;;;6.67;56.63;99709.95;126786;1101;103033;-82
2021/04/29 04:05:32;;;;;;;21.50;17.73;;;;;;;6.68;56.25;99700.26;127165;1095;102244;-84
2021/04/29 04:08:00;;;;;;;24.53;20.93;;;;;;;6.70;56.25;99709.02;127443;1101;102950;-82
2021/04/29 04:10:27;;;;;;;23.40;19.37;;;;;;;6.77;56.80;99712.40;127935;1101;101202;-81
2021/04/29 04:12:54;;;;;;;19.73;17.67;;;;;;;6.79;56.53;99711.46;126871;1101;102968;-82
2021/04/29 04:15:21;;;;;;;21.48;16.88;;;;;;;6.79;56.70;99710.61;127079;1101;103535;-81
2021/04/29 04:17:48;;;;;;;21.77;17.25;;;;;;;6.77;56.60;99713.29;126980;1101;104609;-83
2021/04/29 04:20:21;;;;;;;25.78;20.52;;;;;;;6.79;56.46;99710.61;126803;1101;102803;-80
2021/04/29 04:22:49;;;;;;;20.68;16.33;;;;;;;6.81;57.29;99708.78;126878;1103;103006;-83
2021/04/29 04:25:16;;;;;;;23.90;16.93;;;;;;;6.81;56.97;99706.13;127090;1101;103037;-86
2021/04/29 04:27:43;;;;;;;21.57;18.80;;;;;;;6.82;57.08;99713.17;127001;1101;101772;-82
2021/04/29 04:30:12;;;;;;;21.77;19.17;;;;;;;6.83;57.17;99706.98;126797;1101;102977;-81
2021/04/29 04:32:42;;;;;;;23.20;18.88;;;;;;;6.86;57.41;99706.91;126791;1102;102881;-81
2021/04/29 04:35:28;;;;;;;25.95;18.13;;;;;;;6.91;57.52;99714.76;126544;1104;103436;-82
2021/04/29 04:38:00;;;;;;;22.33;19.07;;;;;;;6.94;57.42;99707.59;127443;1104;101362;-84
2021/04/29 04:40:46;;;;;;;23.53;18.10;;;;;;;7.02;57.52;99710.08;127110;1104;102952;-84
2021/04/29 04:43:17;;;;;;;18.65;16.15;;;;;;;7.02;57.54;99705.67;126750;1105;102584;-81
2021/04/29 04:45:44;;;;;;;33.65;19.18;;;;;;;7.04;57.48;99710.92;127555;1104;101286;-84
2021/04/29 04:48:21;;;;;;;21.00;16.88;;;;;;;7.03;57.67;99707.39;126982;1104;100934;-83
2021/04/29 04:51:00;;;;;;;23.65;18.25;;;;;;;7.05;58.01;99701.19;126781;1104;103116;-83
2021/04/29 04:53:33;;;;;;;18.63;16.30;;;;;;;7.07;57.91;99702.91;126848;1104;102675;-84
2021/04/29 04:56:04;;;;;;;24.33;17.48;;;;;;;7.11;58.17;99701.92;126745;1104;103429;-82
2021/04/29 04:58:36;;;;;;;21.57;16.43;;;;;;;7.07;58.19;99702.91;126623;1104;103089;-84
2021/04/29 05:01:08;;;;;;;16.67;14.93;;;;;;;7.11;58.52;99701.92;126730;1104;102933;-81
2021/04/29 05:03:41;;;;;;;19.75;16.75;;;;;;;7.16;58.95;99699.18;126828;1104;102335;-85
2021/04/29 05:06:35;;;;;;;21.85;17.40;;;;;;;7.22;58.84;99695.51;126651;1100;101971;-82
2021/04/29 05:09:07;;;;;;;24.58;18.10;;;;;;;7.31;58.73;99697.94;126818;1104;101968;-82
2021/04/29 05:11:50;;;;;;;16.23;14.60;;;;;;;7.37;59.12;99692.50;126782;1100;101189;-83
2021/04/29 05:14:24;;;;;;;20.03;17.83;;;;;;;7.44;58.56;99687.92;126782;1099;103240;-83
2021/04/29 05:17:11;;;;;;;22.45;16.25;;;;;;;7.60;58.61;99683.96;126258;1104;103234;-82
2021/04/29 05:19:44;;;;;;;18.33;14.27;;;;;;;7.68;58.60;99679.33;126973;1105;103155;-85
2021/04/29 05:22:17;;;;;;;18.27;15.60;;;;;;;7.77;58.54;99682.64;126489;1104;103107;-83
2021/04/29 05:24:44;;;;;;;24.07;13.13;;;;;;;7.82;59.05;99672.79;126643;1100;101263;-81
2021/04/29 05:27:11;;;;;;;20.30;18.18;;;;;;;7.92;58.29;99673.43;126316;1104;103134;-84
2021/04/29 05:29:38;;;;;;;17.43;15.70;;;;;;;8.00;58.65;99682.05;126604;1104;102976;-82
2021/04/29 05:32:12;;;;;;;16.28;14.60;;;;;;;8.06;58.64;99671.25;126435;1104;102287;-81
2021/04/29 05:34:41;;;;;;;22.43;17.33;;;;;;;8.14;58.82;99661.31;126947;1104;103000;-84
2021/04/29 05:37:26;;;;;;;18.33;15.87;;;;;;;8.24;58.53;99671.63;126638;1104;103147;-82
2021/04/29 05:40:17;;;;;;;16.25;12.65;;;;;;;8.25;58.68;99661.01;126685;1104;103113;-81
2021/04/29 05:42:59;;;;;;;16.57;13.97;;;;;;;8.34;58.67;99665.16;126636;1105;103128;-81
2021/04/29 05:45:28;;;;;;;19.43;15.80;;;;;;;8.40;58.26;99659.69;126440;1104;103078;-83
2021/04/29 05:47:58;;;;;;;16.00;14.25;;;;;;;8.45;58.40;99656.88;126929;1104;102019;-85
2021/04/29 05:50:26;;;;;;;17.40;15.33;;;;;;;8.52;57.99;99661.14;127062;1101;103093;-86
2021/04/29 05:53:00;;;;;;;15.20;13.47;;;;;;;8.57;57.81;99659.23;127173;1101;103941;-83
2021/04/29 05:55:33;;;;;;;16.40;13.50;;;;;;;8.60;58.21;99661.78;126805;1101;103171;-86
2021/04/29 05:58:09;;;;;;;19.28;14.73;;;;;;;8.72;57.80;99655.23;127194;1101;102930;-85
2021/04/29 06:00:44;;;;;;;18.70;16.67;;;;;;;8.86;57.71;99652.13;127160;1101;101778;-82
2021/04/29 06:03:22;;;;;;;17.85;13.50;;;;;;;8.90;57.09;99653.77;126996;1101;102937;-84
2021/04/29 06:05:54;;;;;;;18.43;14.47;;;;;;;8.91;57.81;99660.83;127387;1101;103024;-83
2021/04/29 06:08:22;;;;;;;16.50;13.90;;;;;;;8.93;57.62;99648.38;126853;1101;103084;-83
2021/04/29 06:10:54;;;;;;;17.23;14.23;;;;;;;9.00;56.88;99646.41;127752;1096;102039;-83
2021/04/29 06:13:22;;;;;;;19.48;15.00;;;;;;;9.16;56.91;99644.12;126928;1101;103223;-86
2021/04/29 06:15:49;;;;;;;21.77;17.43;;;;;;;9.36;56.80;99640.80;127673;1101;103142;-86
2021/04/29 06:18:18;;;;;;;17.70;15.60;;;;;;;9.51;56.39;99644.72;127301;1101;101917;-85
2021/04/29 06:20:47;;;;;;;19.13;14.23;;;;;;;9.67;55.90;99640.59;127521;1101;102971;-84
2021/04/29 06:23:14;;;;;;;23.53;18.30;;;;;;;9.82;55.98;99628.58;127188;1101;102030;-84
2021/04/29 06:25:55;;;;;;;15.77;14.13;;;;;;;9.95;55.39;99639.63;127319;1097;103107;-82
2021/04/29 06:28:37;;;;;;;20.30;17.30;;;;;;;9.99;54.91;99627.94;126512;1105;101767;-83
2021/04/29 06:31:05;;;;;;;19.30;14.50;;;;;;;10.04;54.61;99636.63;126697;1104;102002;-84
2021/04/29 06:33:34;;;;;;;18.10;14.73;;;;;;;10.07;54.60;99632.98;126541;1101;103026;-86
2021/04/29 06:36:06;;;;;;;21.25;13.75;;;;;;;10.01;54.65;99639.41;127178;1101;103177;-82
2021/04/29 06:38:40;;;;;;;20.50;14.28;;;;;;;10.01;54.86;99638.56;127178;1101;103094;-81
2021/04/29 06:41:07;;;;;;;20.05;15.68;;;;;;;10.01;54.56;99642.08;126856;1101;102761;-82
2021/04/29 06:43:35;;;;;;;18.03;15.38;;;;;;;10.07;54.74;99648.09;127564;1101;102143;-83
2021/04/29 06:46:02;;;;;;;15.43;12.23;;;;;;;10.19;54.44;99643.17;126703;1101;102971;-82
2021/04/29 06:48:29;;;;;;;22.23;18.05;;;;;;;10.30;54.56;99645.47;127034;1101;103029;-84
2021/04/29 06:50:57;;;;;;;20.58;17.25;;;;;;;10.42;53.58;99644.14;126936;1101;101753;-84
2021/04/29 06:53:23;;;;;;;16.25;14.20;;;;;;;10.58;53.79;99646.23;126859;1101;102971;-84
2021/04/29 06:55:51;;;;;;;18.95;14.85;;;;;;;10.64;53.03;99648.66;126677;1101;102952;-82
2021/04/29 06:58:18;;;;;;;24.30;17.20;;;;;;;10.66;53.06;99642.36;127382;1101;103036;-85
2021/04/29 07:00:45;;;;;;;22.45;17.93;;;;;;;10.77;53.45;99649.92;127211;1101;103085;-85
2021/04/29 07:03:12;;;;;;;17.40;15.65;;;;;;;10.87;52.57;99651.27;127107;1096;103019;-83
2021/04/29 07:05:42;;;;;;;15.60;13.60;;;;;;;10.92;53.28;99651.11;127235;1101;103131;-85
2021/04/29 07:08:10;;;;;;;20.78;15.98;;;;;;;11.04;53.19;99647.08;126939;1101;104635;-84
2021/04/29 07:10:37;;;;;;;15.30;13.53;;;;;;;11.11;52.19;99648.55;126995;1101;102913;-83
2021/04/29 07:13:08;;;;;;;16.35;14.55;;;;;;;11.17;52.77;99645.66;126781;1101;102972;-84
2021/04/29 07:15:41;;;;;;;23.37;15.60;;;;;;;11.28;52.44;99644.35;126896;1101;102978;-83
2021/04/29 07:18:14;;;;;;;18.97;16.47;;;;;;;11.41;52.00;99642.91;127079;1101;102133;-85
2021/04/29 07:20:44;;;;;;;19.33;15.43;;;;;;;11.50;51.78;99646.97;126931;1096;103432;-84
2021/04/29 07:23:17;;;;;;;22.05;17.80;;;;;;;11.59;52.12;99632.39;126974;1101;101914;-85
2021/04/29 07:25:58;;;;;;;19.95;17.53;;;;;;;11.71;51.52;99635.41;126576;1104;103125;-87
2021/04/29 07:28:36;;;;;;;18.73;16.75;;;;;;;11.93;51.49;99629.12;126673;1104;102943;-85
2021/04/29 07:31:05;;;;;;;20.80;17.33;;;;;;;12.15;50.46;99626.36;126777;1104;102946;-83
2021/04/29 07:33:32;;;;;;;22.73;17.40;;;;;;;12.30;50.26;99629.28;126734;1104;101945;-84
2021/04/29 07:36:00;;;;;;;14.93;13.43;;;;;;;12.42;49.57;99619.84;126709;1100;103017;-86
2021/04/29 07:38:27;;;;;;;21.30;15.07;;;;;;;12.44;49.94;99616.16;126321;1104;101595;-85
2021/04/29 07:40:54;;;;;;;19.18;17.18;;;;;;;12.48;49.45;99616.89;126913;1104;100860;-85
2021/04/29 07:43:22;;;;;;;16.33;14.40;;;;;;;12.64;49.34;99614.36;126412;1104;102261;-84
2021/04/29 07:45:52;;;;;;;15.30;13.70;;;;;;;12.73;48.92;99618.38;126546;1099;103368;-85
2021/04/29 07:48:21;;;;;;;16.03;14.27;;;;;;;12.85;48.72;99620.48;126321;1104;103117;-84
2021/04/29 07:50:49;;;;;;;19.37;17.37;;;;;;;13.03;48.62;99608.02;126911;1104;102937;-86
2021/04/29 07:53:22;;;;;;;19.15;14.43;;;;;;;13.19;48.21;99603.66;126436;1105;102954;-86
2021/04/29 07:55:50;;;;;;;19.03;14.63;;;;;;;13.28;47.63;99593.44;126839;1104;102944;-87
2021/04/29 07:58:22;;;;;;;21.00;15.10;;;;;;;13.33;47.01;99584.23;126591;1103;103038;-84
2021/04/29 08:00:56;;;;;;;12.60;11.40;;;;;;;13.39;46.79;99588.42;126518;1104;103120;-86
2021/04/29 08:03:28;;;;;;;15.57;13.10;;;;;;;13.41;46.99;99588.34;127143;1101;102757;-85
2021/04/29 08:06:01;;;;;;;18.90;16.13;;;;;;;13.61;47.37;99574.82;126991;1101;103042;-85
2021/04/29 08:08:28;;;;;;;19.67;15.80;;;;;;;13.79;47.02;99574.79;127126;1101;101752;-86
2021/04/29 08:10:59;;;;;;;19.13;15.90;;;;;;;13.93;46.73;99580.28;126658;1101;103454;-84
2021/04/29 08:13:32;;;;;;;15.80;13.03;;;;;;;14.12;45.74;99581.97;126639;1097;101557;-85
2021/04/29 08:16:07;;;;;;;14.05;12.13;;;;;;;14.18;45.70;99579.82;126174;1101;102942;-83
2021/04/29 08:18:34;;;;;;;18.15;13.85;;;;;;;14.26;45.25;99568.70;126540;1101;103031;-84
2021/04/29 08:21:15;;;;;;;15.50;13.88;;;;;;;14.36;45.73;99572.58;126886;1101;103104;-83
2021/04/29 08:23:45;;;;;;;15.43;13.63;;;;;;;14.54;44.80;99583.20;126739;1101;103253;-84
2021/04/29 08:26:12;;;;;;;15.73;14.07;;;;;;;14.73;45.22;99569.69;126680;1101;102979;-86
2021/04/29 08:28:40;;;;;;;16.13;12.97;;;;;;;14.78;43.65;99585.50;126587;1102;103059;-84
2021/04/29 08:31:12;;;;;;;21.07;15.80;;;;;;;14.91;44.64;99580.30;126719;1101;102955;-85
2021/04/29 08:33:49;;;;;;;16.43;13.63;;;;;;;15.24;43.11;99573.94;127083;1101;102957;-85
2021/04/29 08:36:21;;;;;;;16.95;13.95;;;;;;;15.51;43.48;99564.25;127221;1101;101830;-84
2021/04/29 08:39:04;;;;;;;13.50;11.50;;;;;;;15.82;41.98;99565.09;126469;1103;102977;-83
2021/04/29 08:41:34;;;;;;;12.20;10.98;;;;;;;15.71;41.14;99554.09;127143;1096;101937;-85
2021/04/29 08:44:03;;;;;;;15.20;13.60;;;;;;;15.72;41.53;99545.09;126744;1101;102949;-83
2021/04/29 08:46:32;;;;;;;15.80;13.00;;;;;;;15.81;41.55;99544.56;126624;1097;102148;-84
2021/04/29 08:49:04;;;;;;;16.27;12.97;;;;;;;16.00;42.12;99543.41;127131;1101;103286;-86
2021/04/29 08:51:46;;;;;;;12.95;11.23;;;;;;;16.16;40.46;99537.94;127729;1101;100997;-83
2021/04/29 08:54:16;;;;;;;17.18;13.68;;;;;;;16.32;40.91;99541.36;127234;1101;103187;-88
2021/04/29 08:56:48;;;;;;;11.43;10.13;;;;;;;16.42;39.79;99532.71;127363;1101;102971;-86
2021/04/29 08:59:20;;;;;;;15.70;13.13;;;;;;;16.36;40.50;99539.34;127248;1101;102958;-86
2021/04/29 09:01:48;;;;;;;14.48;12.10;;;;;;;16.35;40.11;99527.75;127117;1101;103072;-85
2021/04/29 09:04:42;;;;;;;16.60;13.40;;;;;;;16.46;39.84;99523.48;127616;1101;101774;-86
2021/04/29 09:07:18;;;;;;;16.40;13.20;;;;;;;16.99;38.75;99520.94;127423;1101;102947;-85
2021/04/29 09:09:46;;;;;;;15.20;12.10;;;;;;;16.93;38.31;99519.53;127572;1101;100882;-85
2021/04/29 09:12:15;;;;;;;11.80;10.15;;;;;;;17.05;37.64;99517.84;126444;1101;103141;-85
2021/04/29 09:14:43;;;;;;;13.10;10.40;;;;;;;17.10;37.49;99518.41;126645;1096;102940;-87
2021/04/29 09:17:11;;;;;;;15.73;13.08;;;;;;;17.30;38.15;99518.84;126206;1096;102977;-87
2021/04/29 09:19:48;;;;;;;11.37;10.17;;;;;;;17.20;37.66;99527.55;127071;1101;103199;-85
2021/04/29 09:22:22;;;;;;;12.00;10.63;;;;;;;16.88;36.56;99519.79;126420;1102;103047;-84
2021/04/29 09:24:50;;;;;;;12.77;9.90;;;;;;;16.70;36.50;99521.01;126906;1101;103426;-84
2021/04/29 09:27:24;;;;;;;13.27;10.97;;;;;;;16.69;37.63;99516.62;126695;1102;103099;-86
2021/04/29 09:30:01;;;;;;;14.33;12.88;;;;;;;16.68;37.98;99513.05;127321;1101;100785;-86
2021/04/29 09:32:35;;;;;;;15.20;10.05;;;;;;;16.69;37.94;99519.31;126895;1101;102974;-87
2021/04/29 09:35:07;;;;;;;11.53;9.83;;;;;;;16.68;37.34;99515.73;126838;1096;102978;-86
2021/04/29 09:37:38;;;;;;;12.80;11.40;;;;;;;16.79;38.58;99516.86;127134;1101;102943;-83
2021/04/29 09:40:28;;;;;;;12.55;10.70;;;;;;;17.03;37.30;99512.58;126557;1101;103029;-83
2021/04/29 09:42:58;;;;;;;12.53;11.30;;;;;;;17.35;36.89;99511.33;126689;1101;103152;-82
2021/04/29 09:45:45;;;;;;;15.30;12.33;;;;;;;17.46;36.23;99506.08;126784;1101;103069;-82
2021/04/29 09:48:19;;;;;;;14.03;11.05;;;;;;;17.63;36.61;99504.03;126549;1101;103026;-86
2021/04/29 09:50:48;;;;;;;17.40;11.98;;;;;;;17.80;36.35;99506.39;126680;1101;102974;-83
2021/04/29 09:57:04;;;;;;;12.30;9.43;;;;;;;17.80;34.38;99501.00;126909;1101;103142;-83
2021/04/29 09:59:48;;;;;;;8.93;8.10;;;;;;;17.92;34.35;99493.03;126863;1101;102987;-86
2021/04/29 10:02:20;;;;;;;11.55;9.68;;;;;;;18.17;34.11;99487.62;126718;1101;103101;-84
2021/04/29 10:04:50;;;;;;;15.07;11.83;;;;;;;18.42;34.02;99480.44;126644;1101;102959;-83
2021/04/29 10:07:32;;;;;;;12.53;11.20;;;;;;;18.53;33.61;99472.41;126929;1101;103093;-85
2021/04/29 10:10:05;;;;;;;19.23;11.13;;;;;;;18.61;33.43;99477.23;126852;1101;102934;-84
2021/04/29 10:12:33;;;;;;;15.07;10.70;;;;;;;18.77;33.89;99476.94;126711;1101;103125;-84
2021/04/29 10:15:00;;;;;;;15.00;11.10;;;;;;;18.80;33.29;99474.00;126982;1101;103133;-85
2021/04/29 10:17:27;;;;;;;10.07;8.53;;;;;;;18.88;32.99;99466.20;126953;1101;103061;-86
2021/04/29 10:19:57;;;;;;;13.38;9.75;;;;;;;19.27;32.58;99459.72;126896;1101;103039;-83
2021/04/29 10:22:27;;;;;;;9.77;8.50;;;;;;;19.67;31.95;99465.55;126687;1101;103018;-85
2021/04/29 10:24:55;;;;;;;10.90;9.23;;;;;;;19.78;30.90;99463.81;126568;1104;103106;-83
2021/04/29 10:27:31;;;;;;;10.40;9.38;;;;;;;19.63;32.14;99457.80;126840;1101;103158;-83
2021/04/29 10:30:18;;;;;;;10.37;7.83;;;;;;;19.56;31.34;99462.83;126686;1101;102971;-83
2021/04/29 10:32:47;;;;;;;9.48;8.45;;;;;;;19.74;31.43;99457.83;126738;1101;102940;-84
2021/04/29 10:35:25;;;;;;;11.50;10.35;;;;;;;19.65;32.33;99456.70;126971;1101;103131;-84
2021/04/29 10:38:01;;;;;;;11.20;10.00;;;;;;;19.67;33.09;99443.95;126475;1104;103123;-86
2021/04/29 10:40:33;;;;;;;10.90;8.50;;;;;;;19.71;32.13;99442.72;126807;1096;103383;-86
2021/04/29 10:43:01;;;;;;;9.50;8.60;;;;;;;20.16;32.17;99444.53;126745;1101;102004;-84
2021/04/29 10:45:28;;;;;;;9.47;8.20;;;;;;;20.78;30.60;99446.72;126675;1102;102971;-84
2021/04/29 10:48:06;;;;;;;10.80;9.67;;;;;;;20.78;30.84;99439.48;126250;1101;103260;-86
2021/04/29 10:50:51;;;;;;;11.88;8.83;;;;;;;20.61;30.77;99442.72;126919;1101;103138;-83
2021/04/29 10:53:33;;;;;;;11.08;9.98;;;;;;;20.27;31.17;99438.24;126810;1096;103001;-86
2021/04/29 10:56:08;;;;;;;17.40;12.30;;;;;;;20.18;32.41;99437.17;126472;1103;101069;-83
2021/04/29 10:58:43;;;;;;;14.23;12.27;;;;;;;20.24;32.86;99430.39;126762;1101;102971;-82
2021/04/29 11:01:15;;;;;;;10.63;8.43;;;;;;;20.06;31.46;99432.78;126898;1101;102978;-84
2021/04/29 11:03:51;;;;;;;11.95;9.23;;;;;;;19.95;32.22;99427.38;126921;1101;103055;-86
2021/04/29 11:06:27;;;;;;;16.33;11.00;;;;;;;20.02;32.29;99424.05;127051;1096;102950;-84
2021/04/29 11:08:57;;;;;;;14.95;11.35;;;;;;;20.08;32.86;99424.54;126884;1095;102952;-87
2021/04/29 11:11:39;;;;;;;14.28;9.73;;;;;;;20.07;32.54;99415.55;126534;1101;103032;-84
2021/04/29 11:14:10;;;;;;;9.08;8.15;;;;;;;20.08;31.46;99411.88;126266;1101;102950;-81
2021/04/29 11:16:47;;;;;;;8.83;6.47;;;;;;;19.97;31.28;99417.31;127441;1101;100893;-83
2021/04/29 11:19:42;;;;;;;13.27;10.93;;;;;;;19.94;31.28;99410.31;126885;1101;103045;-85
2021/04/29 11:22:33;;;;;;;8.78;6.33;;;;;;;20.04;31.50;99405.84;126768;1101;102949;-84
2021/04/29 11:25:07;;;;;;;10.00;6.23;;;;;;;20.04;31.12;99399.59;126543;1101;102949;-84
2021/04/29 11:27:45;;;;;;;10.10;8.70;;;;;;;20.05;32.21;99390.51;126868;1096;102949;-84
2021/04/29 11:30:16;;;;;;;9.23;7.65;;;;;;;20.11;32.39;99394.55;126648;1095;103190;-85
2021/04/29 11:32:54;;;;;;;11.88;9.93;;;;;;;20.19;32.35;99387.53;126759;1101;103126;-85
2021/04/29 11:35:22;;;;;;;6.18;5.45;;;;;;;20.20;31.21;99391.08;126764;1101;102939;-85